Time,TemperatureF,DewpointF,PressureIn,WindDirection,WindDirectionDegrees,WindSpeedMPH,WindSpeedGustMPH,Humidity,HourlyPrecipIn,Conditions,Clouds,dailyrainin,SoftwareType,DateUTC
2013-08-10 00:02:00,68.2,58.2,29.53,NNW,338,0.0,0.0,70,0.00,,,0.00,WUHU216HW,2013-08-10 07:02:00,
2013-08-10 00:07:00,68.0,58.0,29.53,NNW,338,0.4,0.4,70,0.00,,,0.00,WUHU216HW,2013-08-10 07:07:00,
2013-08-10 00:12:00,67.9,57.8,29.53,ENE,68,0.0,0.4,70,0.00,,,0.00,WUHU216HW,2013-08-10 07:12:00,
2013-08-10 00:17:00,67.7,58.0,29.53,ENE,68,0.0,0.4,71,0.00,,,0.00,WUHU216HW,2013-08-10 07:17:00,
2013-08-10 00:22:00,67.7,58.0,29.53,ENE,68,0.0,0.0,71,0.00,,,0.00,WUHU216HW,2013-08-10 07:22:00,
2013-08-10 00:27:00,67.5,57.8,29.53,SE,135,0.5,0.7,71,0.00,,,0.00,WUHU216HW,2013-08-10 07:27:00,
2013-08-10 00:32:00,67.3,57.6,29.54,SE,135,0.0,0.7,71,0.00,,,0.00,WUHU216HW,2013-08-10 07:32:00,
2013-08-10 00:37:00,67.0,57.2,29.54,SE,135,0.0,0.4,71,0.00,,,0.00,WUHU216HW,2013-08-10 07:37:00,
2013-08-10 00:42:00,67.0,57.6,29.54,SSE,158,0.0,0.0,72,0.00,,,0.00,WUHU216HW,2013-08-10 07:42:00,
2013-08-10 00:47:00,66.8,57.4,29.54,SSE,158,0.0,0.0,72,0.00,,,0.00,WUHU216HW,2013-08-10 07:47:00,
2013-08-10 00:52:00,66.4,57.1,29.53,NW,315,0.0,0.0,72,0.00,,,0.00,WUHU216HW,2013-08-10 07:52:00,
2013-08-10 00:57:00,66.2,57.3,29.54,NW,315,0.2,0.2,73,0.00,,,0.00,WUHU216HW,2013-08-10 07:57:00,
2013-08-10 01:02:00,66.1,57.2,29.54,NW,315,0.0,0.2,73,0.00,,,0.00,WUHU216HW,2013-08-10 08:02:00,
2013-08-10 01:07:00,65.9,57.0,29.54,NW,315,0.0,0.0,73,0.00,,,0.00,WUHU216HW,2013-08-10 08:07:00,
2013-08-10 01:12:00,65.9,57.0,29.54,NW,315,0.0,0.0,73,0.00,,,0.00,WUHU216HW,2013-08-10 08:12:00,
2013-08-10 01:17:00,65.7,57.2,29.54,NW,315,0.0,0.0,74,0.00,,,0.00,WUHU216HW,2013-08-10 08:17:00,
2013-08-10 01:22:00,65.5,57.0,29.54,NW,315,0.3,0.4,74,0.00,,,0.00,WUHU216HW,2013-08-10 08:22:00,
2013-08-10 01:27:00,65.3,56.8,29.54,NW,315,0.0,0.4,74,0.00,,,0.00,WUHU216HW,2013-08-10 08:27:00,
2013-08-10 01:32:00,65.2,56.7,29.55,NW,315,0.0,0.0,74,0.00,,,0.00,WUHU216HW,2013-08-10 08:32:00,
2013-08-10 01:37:00,65.0,56.9,29.55,NW,315,0.0,0.0,75,0.00,,,0.00,WUHU216HW,2013-08-10 08:37:00,
2013-08-10 01:42:00,64.8,56.7,29.55,NW,315,0.0,0.0,75,0.00,,,0.00,WUHU216HW,2013-08-10 08:42:00,
2013-08-10 01:47:00,64.8,56.7,29.55,NW,315,0.0,0.0,75,0.00,,,0.00,WUHU216HW,2013-08-10 08:47:00,
2013-08-10 01:52:00,64.6,56.5,29.55,NW,315,0.0,0.0,75,0.00,,,0.00,WUHU216HW,2013-08-10 08:52:00,
2013-08-10 01:57:00,64.4,56.3,29.55,NW,315,0.0,0.0,75,0.00,,,0.00,WUHU216HW,2013-08-10 08:57:00,
2013-08-10 02:02:00,64.4,56.3,29.55,NW,315,0.0,0.0,75,0.00,,,0.00,WUHU216HW,2013-08-10 09:02:00,
2013-08-10 02:07:00,64.3,56.2,29.55,NW,315,0.0,0.0,75,0.00,,,0.00,WUHU216HW,2013-08-10 09:07:00,
2013-08-10 02:12:00,64.1,56.3,29.55,NW,315,0.5,0.7,76,0.00,,,0.00,WUHU216HW,2013-08-10 09:12:00,
2013-08-10 02:17:00,64.1,56.3,29.55,NW,315,0.0,0.7,76,0.00,,,0.00,WUHU216HW,2013-08-10 09:17:00,
2013-08-10 02:22:00,64.1,56.3,29.55,NW,315,0.0,0.0,76,0.00,,,0.00,WUHU216HW,2013-08-10 09:22:00,
2013-08-10 02:27:00,63.9,56.2,29.56,NE,45,0.2,0.2,76,0.00,,,0.00,WUHU216HW,2013-08-10 09:27:00,
2013-08-10 02:32:00,63.7,56.0,29.56,NE,45,0.0,0.2,76,0.00,,,0.00,WUHU216HW,2013-08-10 09:32:00,
2013-08-10 02:37:00,63.7,56.3,29.56,ESE,113,0.4,0.4,77,0.00,,,0.00,WUHU216HW,2013-08-10 09:37:00,
2013-08-10 02:42:00,63.7,56.3,29.56,SW,225,0.0,0.4,77,0.00,,,0.00,WUHU216HW,2013-08-10 09:42:00,
2013-08-10 02:47:00,63.7,56.3,29.56,SW,225,0.0,0.0,77,0.00,,,0.00,WUHU216HW,2013-08-10 09:47:00,
2013-08-10 02:52:00,63.7,56.3,29.56,WNW,293,0.0,0.0,77,0.00,,,0.00,WUHU216HW,2013-08-10 09:52:00,
2013-08-10 02:57:00,63.7,56.3,29.56,SE,135,0.7,0.7,77,0.00,,,0.00,WUHU216HW,2013-08-10 09:57:00,
2013-08-10 03:02:00,63.7,56.7,29.56,SE,135,0.0,0.7,78,0.00,,,0.00,WUHU216HW,2013-08-10 10:02:00,
2013-08-10 03:07:00,63.5,56.5,29.56,SSE,158,0.0,0.7,78,0.00,,,0.00,WUHU216HW,2013-08-10 10:07:00,
2013-08-10 03:12:00,63.4,56.0,29.56,WNW,289,0.6,0.7,77,0.00,,,0.00,WUHU216HW,2013-08-10 10:12:00,
2013-08-10 03:17:00,63.4,56.0,29.56,West,270,0.2,1.1,77,0.00,,,0.00,WUHU216HW,2013-08-10 10:17:00,
2013-08-10 03:22:00,63.2,56.2,29.56,South,169,0.4,1.1,78,0.00,,,0.00,WUHU216HW,2013-08-10 10:22:00,
2013-08-10 03:27:00,63.0,55.6,29.56,SW,225,0.8,1.3,77,0.00,,,0.00,WUHU216HW,2013-08-10 10:27:00,
2013-08-10 03:32:00,63.0,55.6,29.56,West,270,0.2,1.3,77,0.00,,,0.00,WUHU216HW,2013-08-10 10:32:00,
2013-08-10 03:37:00,62.8,55.4,29.56,SE,135,0.4,0.4,77,0.00,,,0.00,WUHU216HW,2013-08-10 10:37:00,
2013-08-10 03:42:00,62.6,55.3,29.56,WSW,248,0.0,0.4,77,0.00,,,0.00,WUHU216HW,2013-08-10 10:42:00,
2013-08-10 03:47:00,62.6,55.3,29.56,WSW,248,0.0,0.4,77,0.00,,,0.00,WUHU216HW,2013-08-10 10:47:00,
2013-08-10 03:52:00,62.5,55.1,29.56,WSW,248,0.0,0.0,77,0.00,,,0.00,WUHU216HW,2013-08-10 10:52:00,
2013-08-10 03:57:00,62.3,54.9,29.56,WSW,248,0.0,0.0,77,0.00,,,0.00,WUHU216HW,2013-08-10 10:57:00,
2013-08-10 04:02:00,62.1,54.8,29.56,WSW,248,0.0,0.0,77,0.00,,,0.00,WUHU216HW,2013-08-10 11:02:00,
2013-08-10 04:07:00,61.9,54.6,29.56,WSW,248,0.0,0.0,77,0.00,,,0.00,WUHU216HW,2013-08-10 11:07:00,
2013-08-10 04:12:00,61.9,55.0,29.56,WSW,248,0.0,0.0,78,0.00,,,0.00,WUHU216HW,2013-08-10 11:12:00,
2013-08-10 04:17:00,61.7,54.8,29.57,WSW,248,0.0,0.0,78,0.00,,,0.00,WUHU216HW,2013-08-10 11:17:00,
2013-08-10 04:22:00,61.6,54.6,29.57,WSW,248,0.0,0.0,78,0.00,,,0.00,WUHU216HW,2013-08-10 11:22:00,
2013-08-10 04:27:00,61.6,54.6,29.57,WSW,248,0.0,0.0,78,0.00,,,0.00,WUHU216HW,2013-08-10 11:27:00,
2013-08-10 04:32:00,61.4,54.5,29.57,WSW,248,0.0,0.0,78,0.00,,,0.00,WUHU216HW,2013-08-10 11:32:00,
2013-08-10 04:36:00,61.2,54.4,29.56,WSW,248,0.0,0.0,78,0.00,,,0.00,WUHU216HW,2013-08-10 11:36:00,
2013-08-10 04:41:00,61.2,54.7,29.56,WSW,248,0.0,0.0,79,0.00,,,0.00,WUHU216HW,2013-08-10 11:41:00,
2013-08-10 04:46:00,61.2,54.7,29.57,WSW,248,0.0,0.0,79,0.00,,,0.00,WUHU216HW,2013-08-10 11:46:00,
2013-08-10 04:52:00,61.0,54.6,29.57,WSW,248,0.0,0.0,79,0.00,,,0.00,WUHU216HW,2013-08-10 11:52:00,
2013-08-10 04:57:00,60.8,54.4,29.57,WSW,248,0.0,0.0,79,0.00,,,0.00,WUHU216HW,2013-08-10 11:57:00,
2013-08-10 05:02:00,60.7,54.2,29.57,WSW,248,0.0,0.0,79,0.00,,,0.00,WUHU216HW,2013-08-10 12:02:00,
2013-08-10 05:07:00,60.7,54.2,29.57,WSW,248,0.0,0.0,79,0.00,,,0.00,WUHU216HW,2013-08-10 12:07:00,
2013-08-10 05:12:00,60.5,54.0,29.57,WSW,248,0.0,0.0,79,0.00,,,0.00,WUHU216HW,2013-08-10 12:12:00,
2013-08-10 05:17:00,60.3,53.8,29.57,South,180,0.2,0.2,79,0.00,,,0.00,WUHU216HW,2013-08-10 12:17:00,
2013-08-10 05:22:00,60.3,53.8,29.57,SSW,203,0.0,0.2,79,0.00,,,0.00,WUHU216HW,2013-08-10 12:22:00,
2013-08-10 05:27:00,60.1,53.6,29.58,SSW,203,0.0,0.0,79,0.00,,,0.00,WUHU216HW,2013-08-10 12:27:00,
2013-08-10 05:32:00,59.9,53.5,29.58,SSW,203,0.0,0.0,79,0.00,,,0.00,WUHU216HW,2013-08-10 12:32:00,
2013-08-10 05:37:00,59.8,53.6,29.58,SW,225,0.0,0.0,80,0.00,,,0.00,WUHU216HW,2013-08-10 12:37:00,
2013-08-10 05:42:00,59.8,53.6,29.58,SW,225,0.4,0.4,80,0.00,,,0.00,WUHU216HW,2013-08-10 12:42:00,
2013-08-10 05:47:00,59.8,53.6,29.59,WSW,248,0.0,0.4,80,0.00,,,0.00,WUHU216HW,2013-08-10 12:47:00,
2013-08-10 05:52:00,59.8,53.6,29.59,WSW,248,0.0,0.0,80,0.00,,,0.00,WUHU216HW,2013-08-10 12:52:00,
2013-08-10 05:57:00,59.8,53.6,29.59,WSW,248,0.0,0.0,80,0.00,,,0.00,WUHU216HW,2013-08-10 12:57:00,
2013-08-10 06:02:00,59.8,53.6,29.59,WSW,248,0.0,0.0,80,0.00,,,0.00,WUHU216HW,2013-08-10 13:02:00,
2013-08-10 06:07:00,59.6,53.8,29.59,WSW,248,0.0,0.0,81,0.00,,,0.00,WUHU216HW,2013-08-10 13:07:00,
2013-08-10 06:12:00,59.4,53.7,29.59,WSW,248,0.0,0.0,81,0.00,,,0.00,WUHU216HW,2013-08-10 13:12:00,
2013-08-10 06:17:00,59.4,53.7,29.60,WSW,248,0.0,0.0,81,0.00,,,0.00,WUHU216HW,2013-08-10 13:17:00,
2013-08-10 06:22:00,59.4,53.7,29.60,ENE,68,0.2,0.2,81,0.00,,,0.00,WUHU216HW,2013-08-10 13:22:00,
2013-08-10 06:27:00,59.4,53.7,29.60,East,97,0.3,0.7,81,0.00,,,0.00,WUHU216HW,2013-08-10 13:27:00,
2013-08-10 06:32:00,59.2,53.5,29.60,WSW,248,0.4,0.7,81,0.00,,,0.00,WUHU216HW,2013-08-10 13:32:00,
2013-08-10 06:37:00,59.2,53.5,29.60,West,270,0.2,0.4,81,0.00,,,0.00,WUHU216HW,2013-08-10 13:37:00,
2013-08-10 06:42:00,59.4,53.7,29.60,West,270,0.0,0.4,81,0.00,,,0.00,WUHU216HW,2013-08-10 13:42:00,
2013-08-10 06:47:00,59.4,53.7,29.61,West,270,0.0,0.0,81,0.00,,,0.00,WUHU216HW,2013-08-10 13:47:00,
2013-08-10 06:52:00,59.4,53.7,29.61,West,270,0.0,0.0,81,0.00,,,0.00,WUHU216HW,2013-08-10 13:52:00,
2013-08-10 06:57:00,59.8,54.0,29.61,West,270,0.0,0.0,81,0.00,,,0.00,WUHU216HW,2013-08-10 13:57:00,
2013-08-10 07:02:00,59.9,54.2,29.61,West,270,0.0,0.0,81,0.00,,,0.00,WUHU216HW,2013-08-10 14:02:00,
2013-08-10 07:07:00,60.1,54.4,29.62,WSW,250,0.7,1.1,81,0.00,,,0.00,WUHU216HW,2013-08-10 14:07:00,
2013-08-10 07:12:00,60.5,54.7,29.62,SW,225,0.0,1.1,81,0.00,,,0.00,WUHU216HW,2013-08-10 14:12:00,
2013-08-10 07:17:00,61.2,55.4,29.62,SE,135,0.4,0.4,81,0.00,,,0.00,WUHU216HW,2013-08-10 14:17:00,
2013-08-10 07:22:00,62.1,56.2,29.62,SSE,164,1.0,1.8,81,0.00,,,0.00,WUHU216HW,2013-08-10 14:22:00,
2013-08-10 07:27:00,63.7,57.4,29.62,SSW,203,0.4,1.8,80,0.00,,,0.00,WUHU216HW,2013-08-10 14:27:00,
2013-08-10 07:32:00,65.7,58.7,29.62,SSW,212,1.4,2.5,78,0.00,,,0.00,WUHU216HW,2013-08-10 14:32:00,
2013-08-10 07:37:00,67.3,59.1,29.62,WSW,248,1.8,2.5,75,0.00,,,0.00,WUHU216HW,2013-08-10 14:37:00,
2013-08-10 07:42:00,68.4,59.4,29.62,SSW,195,1.9,4.0,73,0.00,,,0.00,WUHU216HW,2013-08-10 14:42:00,
2013-08-10 07:47:00,68.9,59.5,29.63,SW,233,1.8,4.0,72,0.00,,,0.00,WUHU216HW,2013-08-10 14:47:00,
2013-08-10 07:52:00,69.7,59.4,29.63,NE,51,1.4,3.6,70,0.00,,,0.00,WUHU216HW,2013-08-10 14:52:00,
2013-08-10 07:57:00,69.8,59.1,29.63,SE,142,2.3,4.0,69,0.00,,,0.00,WUHU216HW,2013-08-10 14:57:00,
2013-08-10 08:02:00,70.0,59.0,29.63,SE,131,2.7,4.0,68,0.00,,,0.00,WUHU216HW,2013-08-10 15:02:00,
2013-08-10 08:07:00,70.0,58.5,29.62,SSE,168,1.5,3.4,67,0.00,,,0.00,WUHU216HW,2013-08-10 15:07:00,
2013-08-10 08:12:00,70.6,59.5,29.62,SE,135,3.4,3.4,68,0.00,,,0.00,WUHU216HW,2013-08-10 15:12:00,
2013-08-10 08:17:00,71.3,59.3,29.62,SE,144,1.9,3.4,66,0.00,,,0.00,WUHU216HW,2013-08-10 15:17:00,
2013-08-10 08:22:00,71.6,59.7,29.62,WNW,287,1.2,3.4,66,0.00,,,0.00,WUHU216HW,2013-08-10 15:22:00,
2013-08-10 08:27:00,71.8,59.4,29.62,SSE,161,1.5,2.2,65,0.00,,,0.00,WUHU216HW,2013-08-10 15:27:00,
2013-08-10 08:32:00,72.4,60.0,29.62,SW,228,2.1,3.1,65,0.00,,,0.00,WUHU216HW,2013-08-10 15:32:00,
2013-08-10 08:37:00,72.9,59.9,29.63,SE,144,1.8,3.4,64,0.00,,,0.00,WUHU216HW,2013-08-10 15:37:00,
2013-08-10 08:42:00,73.1,59.7,29.63,SE,135,1.6,3.4,63,0.00,,,0.00,WUHU216HW,2013-08-10 15:42:00,
2013-08-10 08:47:00,73.6,60.2,29.63,WSW,254,2.1,2.9,63,0.00,,,0.00,WUHU216HW,2013-08-10 15:47:00,
2013-08-10 08:52:00,74.0,60.1,29.63,WSW,240,2.5,3.8,62,0.00,,,0.00,WUHU216HW,2013-08-10 15:52:00,
2013-08-10 08:57:00,72.9,58.7,29.63,SSE,162,2.9,4.0,61,0.00,,,0.00,WUHU216HW,2013-08-10 15:57:00,
2013-08-10 09:02:00,73.1,59.7,29.63,SW,235,2.0,4.0,63,0.00,,,0.00,WUHU216HW,2013-08-10 16:02:00,
2013-08-10 09:07:00,74.2,60.3,29.63,South,178,1.4,4.0,62,0.00,,,0.00,WUHU216HW,2013-08-10 16:07:00,
2013-08-10 09:12:00,74.2,58.9,29.63,SSE,158,4.5,4.5,59,0.00,,,0.00,WUHU216HW,2013-08-10 16:12:00,
2013-08-10 09:17:00,73.8,59.0,29.62,SE,130,3.0,4.5,60,0.00,,,0.00,WUHU216HW,2013-08-10 16:17:00,
2013-08-10 09:22:00,73.8,59.0,29.62,SE,135,2.5,4.5,60,0.00,,,0.00,WUHU216HW,2013-08-10 16:22:00,
2013-08-10 09:27:00,74.2,59.4,29.63,SW,220,2.8,3.6,60,0.00,,,0.00,WUHU216HW,2013-08-10 16:27:00,
2013-08-10 09:32:00,74.3,59.0,29.62,ESE,113,2.5,3.6,59,0.00,,,0.00,WUHU216HW,2013-08-10 16:32:00,
2013-08-10 09:37:00,75.2,59.9,29.62,East,86,2.3,3.8,59,0.00,,,0.00,WUHU216HW,2013-08-10 16:37:00,
2013-08-10 09:42:00,74.9,59.1,29.62,ESE,113,2.0,4.3,58,0.00,,,0.00,WUHU216HW,2013-08-10 16:42:00,
2013-08-10 09:47:00,74.9,59.6,29.62,SSE,158,2.7,4.3,59,0.00,,,0.00,WUHU216HW,2013-08-10 16:47:00,
2013-08-10 09:52:00,75.2,59.5,29.62,West,270,2.5,2.9,58,0.00,,,0.00,WUHU216HW,2013-08-10 16:52:00,
2013-08-10 09:57:00,75.1,59.8,29.62,West,265,2.4,4.3,59,0.00,,,0.00,WUHU216HW,2013-08-10 16:57:00,
2013-08-10 10:02:00,75.4,59.7,29.62,West,266,2.9,4.7,58,0.00,,,0.00,WUHU216HW,2013-08-10 17:02:00,
2013-08-10 10:07:00,76.0,59.6,29.62,SSW,201,1.7,4.7,57,0.00,,,0.00,WUHU216HW,2013-08-10 17:07:00,
2013-08-10 10:12:00,76.0,59.6,29.62,South,183,2.3,3.8,57,0.00,,,0.00,WUHU216HW,2013-08-10 17:12:00,
2013-08-10 10:17:00,75.6,59.3,29.62,WSW,250,3.8,5.4,57,0.00,,,0.00,WUHU216HW,2013-08-10 17:17:00,
2013-08-10 10:22:00,76.0,59.6,29.62,SE,135,3.6,5.4,57,0.00,,,0.00,WUHU216HW,2013-08-10 17:22:00,
2013-08-10 10:27:00,76.1,59.8,29.62,SE,131,1.6,3.6,57,0.00,,,0.00,WUHU216HW,2013-08-10 17:27:00,
2013-08-10 10:32:00,76.5,60.1,29.62,SE,135,5.1,5.1,57,0.00,,,0.00,WUHU216HW,2013-08-10 17:32:00,
2013-08-10 10:37:00,76.5,60.1,29.62,West,281,1.1,5.1,57,0.00,,,0.00,WUHU216HW,2013-08-10 17:37:00,
2013-08-10 10:42:00,76.5,59.6,29.62,South,180,3.1,5.1,56,0.00,,,0.00,WUHU216HW,2013-08-10 17:42:00,
2013-08-10 10:47:00,76.9,60.4,29.62,ESE,115,1.4,3.6,57,0.00,,,0.00,WUHU216HW,2013-08-10 17:47:00,
2013-08-10 10:52:00,78.1,60.6,29.63,SSW,205,1.9,4.0,55,0.00,,,0.00,WUHU216HW,2013-08-10 17:52:00,
2013-08-10 10:57:00,78.1,60.6,29.63,SW,225,2.2,4.0,55,0.00,,,0.00,WUHU216HW,2013-08-10 17:57:00,
2013-08-10 11:02:00,78.1,60.6,29.63,SSE,158,3.6,4.0,55,0.00,,,0.00,WUHU216HW,2013-08-10 18:02:00,
2013-08-10 11:07:00,78.5,60.9,29.62,WSW,252,3.5,6.5,55,0.00,,,0.00,WUHU216HW,2013-08-10 18:07:00,
2013-08-10 11:12:00,78.7,60.6,29.62,South,171,3.0,6.5,54,0.00,,,0.00,WUHU216HW,2013-08-10 18:12:00,
2013-08-10 11:17:00,78.5,60.0,29.63,SW,225,3.4,5.4,53,0.00,,,0.00,WUHU216HW,2013-08-10 18:17:00,
2013-08-10 11:22:00,77.9,60.0,29.62,SSW,203,3.1,5.4,54,0.00,,,0.00,WUHU216HW,2013-08-10 18:22:00,
2013-08-10 11:27:00,77.6,59.6,29.62,ESE,113,4.9,4.9,54,0.00,,,0.00,WUHU216HW,2013-08-10 18:27:00,
2013-08-10 11:32:00,77.4,59.4,29.62,SSE,147,2.9,5.1,54,0.00,,,0.00,WUHU216HW,2013-08-10 18:32:00,
2013-08-10 11:37:00,76.9,59.0,29.62,SW,225,2.7,5.1,54,0.00,,,0.00,WUHU216HW,2013-08-10 18:37:00,
2013-08-10 11:42:00,77.2,59.8,29.62,WSW,248,3.4,4.3,55,0.00,,,0.00,WUHU216HW,2013-08-10 18:42:00,
2013-08-10 11:47:00,77.2,59.2,29.62,WNW,293,6.5,6.5,54,0.00,,,0.00,WUHU216HW,2013-08-10 18:47:00,
2013-08-10 11:52:00,77.9,60.0,29.62,SSE,155,3.5,6.5,54,0.00,,,0.00,WUHU216HW,2013-08-10 18:52:00,
2013-08-10 11:57:00,78.1,60.1,29.62,WSW,245,5.2,7.6,54,0.00,,,0.00,WUHU216HW,2013-08-10 18:57:00,
2013-08-10 12:02:00,78.8,60.2,29.61,SE,146,2.6,7.6,53,0.00,,,0.00,WUHU216HW,2013-08-10 19:02:00,
2013-08-10 12:07:00,78.5,60.0,29.62,WSW,256,2.6,6.3,53,0.00,,,0.00,WUHU216HW,2013-08-10 19:07:00,
2013-08-10 12:12:00,77.9,60.0,29.62,West,270,5.1,5.1,54,0.00,,,0.00,WUHU216HW,2013-08-10 19:12:00,
2013-08-10 12:17:00,78.7,60.6,29.61,WSW,248,4.3,5.4,54,0.00,,,0.00,WUHU216HW,2013-08-10 19:17:00,
2013-08-10 12:22:00,79.0,60.4,29.61,West,277,2.9,5.4,53,0.00,,,0.00,WUHU216HW,2013-08-10 19:22:00,
2013-08-10 12:27:00,78.3,59.8,29.61,North,0,2.7,4.7,53,0.00,,,0.00,WUHU216HW,2013-08-10 19:27:00,
2013-08-10 12:32:00,78.5,60.4,29.61,West,270,4.3,4.7,54,0.00,,,0.00,WUHU216HW,2013-08-10 19:32:00,
2013-08-10 12:37:00,78.7,60.6,29.61,WSW,248,4.5,8.1,54,0.00,,,0.00,WUHU216HW,2013-08-10 19:37:00,
2013-08-10 12:42:00,78.3,60.3,29.61,SSE,152,3.0,8.1,54,0.00,,,0.00,WUHU216HW,2013-08-10 19:42:00,
2013-08-10 12:47:00,78.3,60.3,29.61,WSW,250,3.9,6.0,54,0.00,,,0.00,WUHU216HW,2013-08-10 19:47:00,
2013-08-10 12:52:00,78.5,60.4,29.61,SSE,158,4.7,6.0,54,0.00,,,0.00,WUHU216HW,2013-08-10 19:52:00,
2013-08-10 12:57:00,78.1,60.1,29.61,WSW,239,1.8,5.1,54,0.00,,,0.00,WUHU216HW,2013-08-10 19:57:00,
2013-08-10 13:02:00,78.1,60.1,29.61,ESE,108,3.1,5.1,54,0.00,,,0.00,WUHU216HW,2013-08-10 20:02:00,
2013-08-10 13:07:00,78.1,60.1,29.62,WSW,248,4.5,6.5,54,0.00,,,0.00,WUHU216HW,2013-08-10 20:07:00,
2013-08-10 13:12:00,78.1,60.6,29.61,NW,315,3.1,6.5,55,0.00,,,0.00,WUHU216HW,2013-08-10 20:12:00,
2013-08-10 13:17:00,78.1,60.1,29.61,SW,231,2.8,5.1,54,0.00,,,0.00,WUHU216HW,2013-08-10 20:17:00,
2013-08-10 13:22:00,78.1,60.1,29.61,SW,225,3.4,6.0,54,0.00,,,0.00,WUHU216HW,2013-08-10 20:22:00,
2013-08-10 13:27:00,78.3,60.3,29.61,West,281,3.9,6.0,54,0.00,,,0.00,WUHU216HW,2013-08-10 20:27:00,
2013-08-10 13:32:00,78.3,60.3,29.61,West,270,2.9,5.4,54,0.00,,,0.00,WUHU216HW,2013-08-10 20:32:00,
2013-08-10 13:37:00,78.5,60.0,29.61,West,270,4.7,5.8,53,0.00,,,0.00,WUHU216HW,2013-08-10 20:37:00,
2013-08-10 13:42:00,78.5,60.4,29.61,SSE,148,2.8,5.8,54,0.00,,,0.00,WUHU216HW,2013-08-10 20:42:00,
2013-08-10 13:47:00,78.5,60.0,29.61,South,180,2.7,5.4,53,0.00,,,0.00,WUHU216HW,2013-08-10 20:47:00,
2013-08-10 13:52:00,78.5,60.0,29.60,SSE,158,4.0,5.4,53,0.00,,,0.00,WUHU216HW,2013-08-10 20:52:00,
2013-08-10 13:57:00,78.5,60.4,29.61,SW,225,4.0,5.6,54,0.00,,,0.00,WUHU216HW,2013-08-10 20:57:00,
2013-08-10 14:02:00,78.8,60.8,29.61,SW,233,2.8,5.6,54,0.00,,,0.00,WUHU216HW,2013-08-10 21:02:00,
2013-08-10 14:07:00,78.8,60.2,29.61,SSE,157,4.3,5.4,53,0.00,,,0.00,WUHU216HW,2013-08-10 21:07:00,
2013-08-10 14:12:00,78.3,59.8,29.61,SSE,163,3.6,5.6,53,0.00,,,0.00,WUHU216HW,2013-08-10 21:12:00,
2013-08-10 14:17:00,77.9,60.0,29.61,WSW,246,3.1,5.6,54,0.00,,,0.00,WUHU216HW,2013-08-10 21:17:00,
2013-08-10 14:22:00,78.1,60.1,29.60,WSW,256,3.2,6.0,54,0.00,,,0.00,WUHU216HW,2013-08-10 21:22:00,
2013-08-10 14:27:00,78.1,60.1,29.61,West,270,4.7,6.0,54,0.00,,,0.00,WUHU216HW,2013-08-10 21:27:00,
2013-08-10 14:32:00,77.9,60.0,29.60,SW,225,3.1,4.7,54,0.00,,,0.00,WUHU216HW,2013-08-10 21:32:00,
2013-08-10 14:37:00,77.9,60.0,29.60,WSW,248,2.0,4.7,54,0.00,,,0.00,WUHU216HW,2013-08-10 21:37:00,
2013-08-10 14:42:00,78.3,60.3,29.60,WNW,295,3.3,4.7,54,0.00,,,0.00,WUHU216HW,2013-08-10 21:42:00,
2013-08-10 14:47:00,78.8,60.8,29.60,SSE,158,4.3,4.7,54,0.00,,,0.00,WUHU216HW,2013-08-10 21:47:00,
2013-08-10 14:52:00,79.6,60.9,29.60,South,186,3.5,5.8,53,0.00,,,0.00,WUHU216HW,2013-08-10 21:52:00,
2013-08-10 14:57:00,80.1,60.8,29.61,SW,231,2.1,5.8,52,0.00,,,0.00,WUHU216HW,2013-08-10 21:57:00,
2013-08-10 15:02:00,79.6,59.9,29.61,SSW,192,1.7,6.7,51,0.00,,,0.00,WUHU216HW,2013-08-10 22:02:00,
2013-08-10 15:07:00,78.8,59.8,29.61,SSE,163,1.3,6.7,52,0.00,,,0.00,WUHU216HW,2013-08-10 22:07:00,
2013-08-10 15:12:00,78.8,60.2,29.61,WNW,284,2.4,4.9,53,0.00,,,0.00,WUHU216HW,2013-08-10 22:12:00,
2013-08-10 15:17:00,78.8,60.2,29.60,SSE,158,2.0,4.9,53,0.00,,,0.00,WUHU216HW,2013-08-10 22:17:00,
2013-08-10 15:22:00,78.8,60.2,29.60,SW,221,1.6,4.3,53,0.00,,,0.00,WUHU216HW,2013-08-10 22:22:00,
2013-08-10 15:27:00,78.7,60.1,29.60,WSW,240,0.8,4.7,53,0.00,,,0.00,WUHU216HW,2013-08-10 22:27:00,
2013-08-10 15:32:00,78.5,60.0,29.60,WSW,248,3.4,4.7,53,0.00,,,0.00,WUHU216HW,2013-08-10 22:32:00,
2013-08-10 15:37:00,78.5,60.0,29.61,East,90,2.0,4.5,53,0.00,,,0.00,WUHU216HW,2013-08-10 22:37:00,
2013-08-10 15:42:00,78.5,60.0,29.61,SSE,158,2.2,3.4,53,0.00,,,0.00,WUHU216HW,2013-08-10 22:42:00,
2013-08-10 15:47:00,78.3,59.8,29.61,SSE,150,1.7,3.8,53,0.00,,,0.00,WUHU216HW,2013-08-10 22:47:00,
2013-08-10 15:52:00,78.1,59.6,29.61,SSE,158,2.0,3.8,53,0.00,,,0.00,WUHU216HW,2013-08-10 22:52:00,
2013-08-10 15:57:00,78.1,60.1,29.60,ENE,68,2.0,2.9,54,0.00,,,0.00,WUHU216HW,2013-08-10 22:57:00,
2013-08-10 16:02:00,78.7,60.6,29.60,SE,145,1.4,2.0,54,0.00,,,0.00,WUHU216HW,2013-08-10 23:02:00,
2013-08-10 16:07:00,78.8,60.2,29.60,SSE,158,1.1,2.0,53,0.00,,,0.00,WUHU216HW,2013-08-10 23:07:00,
2013-08-10 16:12:00,79.2,60.6,29.60,SW,225,2.7,3.6,53,0.00,,,0.00,WUHU216HW,2013-08-10 23:12:00,
2013-08-10 16:17:00,79.4,60.2,29.60,East,90,2.0,3.8,52,0.00,,,0.00,WUHU216HW,2013-08-10 23:17:00,
2013-08-10 16:22:00,79.4,60.2,29.61,WSW,244,2.9,4.7,52,0.00,,,0.00,WUHU216HW,2013-08-10 23:22:00,
2013-08-10 16:27:00,79.4,60.8,29.61,WSW,251,3.1,4.7,53,0.00,,,0.00,WUHU216HW,2013-08-10 23:27:00,
2013-08-10 16:32:00,79.4,60.2,29.60,SE,135,1.6,3.4,52,0.00,,,0.00,WUHU216HW,2013-08-10 23:32:00,
2013-08-10 16:37:00,78.8,59.8,29.61,South,180,1.8,3.4,52,0.00,,,0.00,WUHU216HW,2013-08-10 23:37:00,
2013-08-10 16:42:00,77.8,58.8,29.61,SSE,161,1.6,4.0,52,0.00,,,0.00,WUHU216HW,2013-08-10 23:42:00,
2013-08-10 16:47:00,77.4,59.0,29.61,West,270,1.6,4.0,53,0.00,,,0.00,WUHU216HW,2013-08-10 23:47:00,
2013-08-10 16:52:00,77.2,59.2,29.61,SSE,157,2.3,3.8,54,0.00,,,0.00,WUHU216HW,2013-08-10 23:52:00,
2013-08-10 16:57:00,77.0,59.0,29.62,SE,135,2.5,3.8,54,0.00,,,0.00,WUHU216HW,2013-08-10 23:57:00,
2013-08-10 17:02:00,76.7,59.2,29.61,SW,231,1.7,2.5,55,0.00,,,0.00,WUHU216HW,2013-08-11 00:02:00,
2013-08-10 17:07:00,76.7,59.2,29.61,WSW,253,2.9,4.7,55,0.00,,,0.00,WUHU216HW,2013-08-11 00:07:00,
2013-08-10 17:12:00,76.5,59.1,29.62,SSW,203,1.8,4.7,55,0.00,,,0.00,WUHU216HW,2013-08-11 00:12:00,
2013-08-10 17:17:00,76.0,59.1,29.62,South,174,2.4,4.0,56,0.00,,,0.00,WUHU216HW,2013-08-11 00:17:00,
2013-08-10 17:22:00,75.2,58.5,29.62,SW,235,3.0,7.6,56,0.00,,,0.00,WUHU216HW,2013-08-11 00:22:00,
2013-08-10 17:27:00,74.3,58.1,29.63,South,179,2.1,7.6,57,0.00,,,0.00,WUHU216HW,2013-08-11 00:27:00,
2013-08-10 17:32:00,73.3,58.1,29.62,South,181,2.7,5.8,59,0.00,,,0.00,WUHU216HW,2013-08-11 00:32:00,
2013-08-10 17:37:00,72.9,57.7,29.63,WSW,248,4.5,4.9,59,0.00,,,0.00,WUHU216HW,2013-08-11 00:37:00,
2013-08-10 17:42:00,72.9,58.2,29.63,SSE,158,2.5,4.5,60,0.00,,,0.00,WUHU216HW,2013-08-11 00:42:00,
2013-08-10 17:47:00,72.5,57.9,29.62,West,270,2.5,4.5,60,0.00,,,0.00,WUHU216HW,2013-08-11 00:47:00,
2013-08-10 17:52:00,72.5,57.9,29.62,WSW,242,1.5,3.6,60,0.00,,,0.00,WUHU216HW,2013-08-11 00:52:00,
2013-08-10 17:57:00,72.4,57.7,29.62,WNW,293,2.7,4.7,60,0.00,,,0.00,WUHU216HW,2013-08-11 00:57:00,
2013-08-10 18:02:00,72.2,57.5,29.62,SW,225,2.2,4.7,60,0.00,,,0.00,WUHU216HW,2013-08-11 01:02:00,
2013-08-10 18:07:00,72.0,57.8,29.62,SW,222,1.9,3.6,61,0.00,,,0.00,WUHU216HW,2013-08-11 01:07:00,
2013-08-10 18:12:00,71.6,57.5,29.62,South,180,1.8,3.6,61,0.00,,,0.00,WUHU216HW,2013-08-11 01:12:00,
2013-08-10 18:17:00,71.3,57.6,29.62,WSW,238,2.1,3.6,62,0.00,,,0.00,WUHU216HW,2013-08-11 01:17:00,
2013-08-10 18:22:00,71.1,57.9,29.62,SW,220,1.5,3.4,63,0.00,,,0.00,WUHU216HW,2013-08-11 01:22:00,
2013-08-10 18:27:00,70.6,57.3,29.62,SE,143,2.4,3.6,63,0.00,,,0.00,WUHU216HW,2013-08-11 01:27:00,
2013-08-10 18:32:00,70.2,57.4,29.62,SW,220,1.0,3.6,64,0.00,,,0.00,WUHU216HW,2013-08-11 01:32:00,
2013-08-10 18:37:00,70.0,57.2,29.62,NW,315,1.1,2.5,64,0.00,,,0.00,WUHU216HW,2013-08-11 01:37:00,
2013-08-10 18:42:00,69.8,57.5,29.61,South,185,1.4,2.2,65,0.00,,,0.00,WUHU216HW,2013-08-11 01:42:00,
2013-08-10 18:47:00,69.7,57.3,29.61,SSW,203,1.1,2.2,65,0.00,,,0.00,WUHU216HW,2013-08-11 01:47:00,
2013-08-10 18:52:00,69.5,57.6,29.61,SW,235,1.2,2.7,66,0.00,,,0.00,WUHU216HW,2013-08-11 01:52:00,
2013-08-10 18:57:00,69.5,57.6,29.61,WSW,248,1.6,3.1,66,0.00,,,0.00,WUHU216HW,2013-08-11 01:57:00,
2013-08-10 19:02:00,69.3,57.4,29.61,West,270,1.8,3.1,66,0.00,,,0.00,WUHU216HW,2013-08-11 02:02:00,
2013-08-10 19:07:00,69.3,57.9,29.61,SW,236,2.0,2.9,67,0.00,,,0.00,WUHU216HW,2013-08-11 02:07:00,
2013-08-10 19:12:00,69.1,57.7,29.61,WSW,242,1.0,2.9,67,0.00,,,0.00,WUHU216HW,2013-08-11 02:12:00,
2013-08-10 19:17:00,68.9,58.0,29.61,SW,233,2.8,4.7,68,0.00,,,0.00,WUHU216HW,2013-08-11 02:17:00,
2013-08-10 19:22:00,68.8,57.8,29.60,West,270,2.2,4.7,68,0.00,,,0.00,WUHU216HW,2013-08-11 02:22:00,
2013-08-10 19:27:00,68.8,57.8,29.61,SE,135,1.8,4.0,68,0.00,,,0.00,WUHU216HW,2013-08-11 02:27:00,
2013-08-10 19:32:00,68.4,57.4,29.61,WNW,293,1.3,3.8,68,0.00,,,0.00,WUHU216HW,2013-08-11 02:32:00,
2013-08-10 19:37:00,68.2,57.7,29.61,WNW,285,1.5,3.4,69,0.00,,,0.00,WUHU216HW,2013-08-11 02:37:00,
2013-08-10 19:42:00,68.4,57.4,29.61,West,274,1.1,3.4,68,0.00,,,0.00,WUHU216HW,2013-08-11 02:42:00,
2013-08-10 19:47:00,68.4,57.4,29.61,SSW,205,0.5,2.7,68,0.00,,,0.00,WUHU216HW,2013-08-11 02:47:00,
2013-08-10 19:52:00,68.0,57.1,29.61,WSW,248,1.6,1.8,68,0.00,,,0.00,WUHU216HW,2013-08-11 02:52:00,
2013-08-10 19:57:00,67.9,57.3,29.61,SSE,158,1.8,1.8,69,0.00,,,0.00,WUHU216HW,2013-08-11 02:57:00,
2013-08-10 20:02:00,67.7,57.6,29.62,SE,146,0.6,1.8,70,0.00,,,0.00,WUHU216HW,2013-08-11 03:02:00,
2013-08-10 20:08:00,67.3,56.8,29.62,SE,135,0.6,1.3,69,0.00,,,0.00,WUHU216HW,2013-08-11 03:08:00,
2013-08-10 20:13:00,67.3,56.8,29.62,ESE,113,0.4,1.3,69,0.00,,,0.00,WUHU216HW,2013-08-11 03:13:00,
2013-08-10 20:18:00,67.3,57.2,29.62,ESE,113,0.0,0.4,70,0.00,,,0.00,WUHU216HW,2013-08-11 03:18:00,
2013-08-10 20:23:00,67.3,56.8,29.62,ESE,113,0.0,0.0,69,0.00,,,0.00,WUHU216HW,2013-08-11 03:23:00,
2013-08-10 20:28:00,67.3,57.2,29.63,ENE,70,0.6,0.7,70,0.00,,,0.00,WUHU216HW,2013-08-11 03:28:00,
2013-08-10 20:33:00,67.1,57.1,29.63,ESE,102,1.0,2.7,70,0.00,,,0.00,WUHU216HW,2013-08-11 03:33:00,
2013-08-10 20:38:00,67.1,56.6,29.63,SE,126,1.3,2.7,69,0.00,,,0.00,WUHU216HW,2013-08-11 03:38:00,
2013-08-10 20:43:00,66.8,56.3,29.64,East,90,1.3,1.8,69,0.00,,,0.00,WUHU216HW,2013-08-11 03:43:00,
2013-08-10 20:49:00,66.4,56.3,29.64,West,270,1.1,1.8,70,0.00,,,0.00,WUHU216HW,2013-08-11 03:49:00,
2013-08-10 20:54:00,66.1,56.0,29.64,SE,133,1.1,2.0,70,0.00,,,0.00,WUHU216HW,2013-08-11 03:54:00,
2013-08-10 20:59:00,66.1,56.0,29.64,SE,142,0.5,2.0,70,0.00,,,0.00,WUHU216HW,2013-08-11 03:59:00,
2013-08-10 21:01:00,65.9,55.8,29.65,SSE,158,1.1,2.0,70,0.00,,,0.00,WUHU216HW,2013-08-11 04:01:00,
2013-08-10 21:06:00,65.9,55.8,29.65,SE,135,0.0,1.1,70,0.00,,,0.00,WUHU216HW,2013-08-11 04:06:00,
2013-08-10 21:11:00,65.9,55.8,29.65,East,88,0.6,1.1,70,0.00,,,0.00,WUHU216HW,2013-08-11 04:11:00,
2013-08-10 21:16:00,65.9,55.8,29.66,East,87,0.4,1.1,70,0.00,,,0.00,WUHU216HW,2013-08-11 04:16:00,
2013-08-10 21:21:00,65.9,55.8,29.66,SE,135,0.7,1.1,70,0.00,,,0.00,WUHU216HW,2013-08-11 04:21:00,
2013-08-10 21:26:00,65.9,55.8,29.66,SSE,149,0.3,1.1,70,0.00,,,0.00,WUHU216HW,2013-08-11 04:26:00,
2013-08-10 21:31:00,65.9,55.8,29.66,SE,135,0.5,1.1,70,0.00,,,0.00,WUHU216HW,2013-08-11 04:31:00,
2013-08-10 21:36:00,65.9,55.8,29.66,ESE,113,0.0,0.7,70,0.00,,,0.00,WUHU216HW,2013-08-11 04:36:00,
2013-08-10 21:41:00,65.9,55.8,29.66,ESE,113,0.5,0.7,70,0.00,,,0.00,WUHU216HW,2013-08-11 04:41:00,
2013-08-10 21:46:00,65.9,55.8,29.67,ESE,113,0.0,0.7,70,0.00,,,0.00,WUHU216HW,2013-08-11 04:46:00,
2013-08-10 21:51:00,65.9,55.8,29.67,ESE,113,0.0,0.0,70,0.00,,,0.00,WUHU216HW,2013-08-11 04:51:00,
2013-08-10 21:56:00,65.9,55.8,29.67,ESE,113,0.0,0.2,70,0.00,,,0.00,WUHU216HW,2013-08-11 04:56:00,
2013-08-10 22:01:00,65.7,55.7,29.67,ESE,113,0.0,0.2,70,0.00,,,0.00,WUHU216HW,2013-08-11 05:01:00,
2013-08-10 22:06:00,65.7,55.7,29.67,ESE,117,0.8,0.9,70,0.00,,,0.00,WUHU216HW,2013-08-11 05:06:00,
2013-08-10 22:11:00,65.5,55.5,29.67,East,90,0.0,0.9,70,0.00,,,0.00,WUHU216HW,2013-08-11 05:11:00,
2013-08-10 22:17:00,65.3,55.4,29.67,South,180,0.3,0.4,70,0.00,,,0.00,WUHU216HW,2013-08-11 05:17:00,
2013-08-10 22:22:00,64.8,55.3,29.67,ESE,113,0.0,1.1,71,0.00,,,0.00,WUHU216HW,2013-08-11 05:22:00,
2013-08-10 22:28:00,64.6,55.5,29.67,East,90,0.0,1.1,72,0.00,,,0.00,WUHU216HW,2013-08-11 05:28:00,
2013-08-10 22:33:00,64.3,55.1,29.67,SW,225,0.4,0.9,72,0.00,,,0.00,WUHU216HW,2013-08-11 05:33:00,
2013-08-10 22:38:00,64.1,55.3,29.67,SW,225,0.0,0.9,73,0.00,,,0.00,WUHU216HW,2013-08-11 05:38:00,
2013-08-10 22:43:00,63.9,55.1,29.67,SW,225,0.0,0.0,73,0.00,,,0.00,WUHU216HW,2013-08-11 05:43:00,
2013-08-10 22:48:00,63.7,54.9,29.67,SW,225,0.0,0.0,73,0.00,,,0.00,WUHU216HW,2013-08-11 05:48:00,
2013-08-10 22:53:00,63.4,54.9,29.67,SW,225,0.0,0.0,74,0.00,,,0.00,WUHU216HW,2013-08-11 05:53:00,
2013-08-10 22:58:00,63.2,54.7,29.67,WSW,248,0.2,0.4,74,0.00,,,0.00,WUHU216HW,2013-08-11 05:58:00,
2013-08-10 23:04:00,63.0,54.5,29.67,West,270,0.0,0.9,74,0.00,,,0.00,WUHU216HW,2013-08-11 06:04:00,
2013-08-10 23:09:00,62.8,54.7,29.67,WSW,248,0.3,0.9,75,0.00,,,0.00,WUHU216HW,2013-08-11 06:09:00,
2013-08-10 23:14:00,62.6,54.2,29.67,WSW,248,0.2,0.4,74,0.00,,,0.00,WUHU216HW,2013-08-11 06:14:00,
2013-08-10 23:19:00,62.5,54.0,29.67,West,270,0.0,0.4,74,0.00,,,0.00,WUHU216HW,2013-08-11 06:19:00,
2013-08-10 23:24:00,62.3,54.2,29.67,SE,135,1.3,1.3,75,0.00,,,0.00,WUHU216HW,2013-08-11 06:24:00,
2013-08-10 23:29:00,61.9,54.3,29.67,WSW,248,0.4,1.3,76,0.00,,,0.00,WUHU216HW,2013-08-11 06:29:00,
2013-08-10 23:34:00,61.7,54.1,29.67,SE,135,0.4,0.9,76,0.00,,,0.00,WUHU216HW,2013-08-11 06:34:00,
2013-08-10 23:39:00,61.6,54.3,29.67,SE,142,0.6,1.1,77,0.00,,,0.00,WUHU216HW,2013-08-11 06:39:00,
2013-08-10 23:44:00,61.4,54.1,29.67,SW,225,0.4,1.1,77,0.00,,,0.00,WUHU216HW,2013-08-11 06:44:00,
2013-08-10 23:49:00,61.2,54.0,29.67,WSW,251,0.7,2.2,77,0.00,,,0.00,WUHU216HW,2013-08-11 06:49:00,
2013-08-10 23:55:00,61.2,54.0,29.66,WSW,248,0.7,2.2,77,0.00,,,0.00,WUHU216HW,2013-08-11 06:55:00,